Time;durP1;ratioP1;P1;durP2;ratioP2;P2;SDS_P1;SDS_P2;PMS_P1;PMS_P2;Temp;Humidity;BMP_temperature;BMP_pressure;BME280_temperature;BME280_humidity;BME280_pressure;Samples;Min_cycle;Max_cycle;Signal;HPM_P1;HPM_P2
2024/04/05 00:02:17;;;;;;;2.25;0.90;;;13.90;90.60;;;;;;4995470;28;20088;-81
2024/04/05 00:04:42;;;;;;;3.40;1.20;;;13.80;90.60;;;;;;5011721;28;20396;-81
2024/04/05 00:07:08;;;;;;;2.67;1.00;;;13.80;90.60;;;;;;4995559;28;20022;-80
2024/04/05 00:09:34;;;;;;;2.78;1.05;;;13.80;90.60;;;;;;5013205;28;20101;-81
2024/04/05 00:11:59;;;;;;;4.93;1.10;;;13.80;90.60;;;;;;4994477;28;20490;-80
2024/04/05 00:14:25;;;;;;;3.60;1.20;;;13.90;90.60;;;;;;5013155;28;20038;-80
2024/04/05 00:16:51;;;;;;;2.90;1.10;;;13.90;90.60;;;;;;5012829;28;20037;-81
2024/04/05 00:19:16;;;;;;;2.75;1.10;;;13.90;90.70;;;;;;4995362;28;20026;-81
2024/04/05 00:21:42;;;;;;;2.72;0.93;;;13.90;90.60;;;;;;5012749;28;20030;-81
2024/04/05 00:24:07;;;;;;;5.15;1.40;;;13.80;90.60;;;;;;4995171;28;20655;-81
2024/04/05 00:26:33;;;;;;;3.53;0.95;;;13.90;90.60;;;;;;4994553;28;20025;-81
2024/04/05 00:28:58;;;;;;;3.30;1.00;;;13.90;90.60;;;;;;4995157;28;20397;-81
2024/04/05 00:31:24;;;;;;;4.07;1.20;;;13.90;90.60;;;;;;4995057;28;20022;-81
2024/04/05 00:33:50;;;;;;;6.35;1.30;;;13.80;90.60;;;;;;4994948;28;20534;-81
2024/04/05 00:36:15;;;;;;;3.50;1.00;;;13.90;90.50;;;;;;5012690;28;20447;-81
2024/04/05 00:38:41;;;;;;;3.05;1.10;;;13.90;90.50;;;;;;4994906;28;20030;-82
2024/04/05 00:41:06;;;;;;;3.38;1.10;;;13.90;90.60;;;;;;4995000;28;20033;-80
2024/04/05 00:43:32;;;;;;;2.58;1.00;;;13.90;90.60;;;;;;5012703;28;20022;-81
2024/04/05 00:45:58;;;;;;;3.63;1.50;;;13.90;90.60;;;;;;5012694;28;20553;-80
2024/04/05 00:48:24;;;;;;;4.05;1.10;;;13.90;90.60;;;;;;4994991;28;20026;-81
2024/04/05 00:50:51;;;;;;;3.15;1.00;;;13.70;90.50;;;;;;4994836;28;20490;-80
2024/04/05 00:53:24;;;;;;;3.75;1.10;;;13.80;90.60;;;;;;4994849;28;20479;-81
2024/04/05 00:55:51;;;;;;;2.90;1.10;;;13.80;90.50;;;;;;4994916;28;20022;-81
2024/04/05 00:58:17;;;;;;;2.63;0.98;;;13.90;90.60;;;;;;5012438;28;20490;-80
2024/04/05 01:00:43;;;;;;;3.80;1.30;;;13.90;90.60;;;;;;4994748;28;20368;-81
2024/04/05 01:03:08;;;;;;;3.17;1.00;;;13.90;90.60;;;;;;4994703;28;20080;-81
2024/04/05 01:05:38;;;;;;;2.35;0.90;;;13.90;90.60;;;;;;4994768;28;20026;-81
2024/04/05 01:08:05;;;;;;;4.15;1.30;;;13.90;90.90;;;;;;4994723;28;20509;-81
2024/04/05 01:10:30;;;;;;;3.55;1.15;;;13.80;90.60;;;;;;5012122;28;20112;-81
2024/04/05 01:13:04;;;;;;;4.50;1.30;;;13.90;90.70;;;;;;5012200;28;20176;-81
2024/04/05 01:15:33;;;;;;;2.03;0.85;;;13.80;90.60;;;;;;5012641;28;20101;-81
2024/04/05 01:18:01;;;;;;;4.20;1.17;;;13.80;90.60;;;;;;4994855;28;20022;-81
2024/04/05 01:20:29;;;;;;;2.65;0.95;;;13.80;90.70;;;;;;4994431;28;20045;-81
2024/04/05 01:22:59;;;;;;;1.92;0.80;;;13.90;90.70;;;;;;5012443;28;20057;-81
2024/04/05 01:25:25;;;;;;;3.53;1.00;;;13.90;90.90;;;;;;5016025;28;20095;-81
2024/04/05 01:27:50;;;;;;;3.90;1.25;;;13.90;90.70;;;;;;5015963;28;20026;-81
2024/04/05 01:30:16;;;;;;;3.42;1.27;;;13.90;90.70;;;;;;5016085;28;20037;-80
2024/04/05 01:32:57;;;;;;;3.83;1.00;;;13.80;90.60;;;;;;5016229;28;20030;-80
2024/04/05 01:35:23;;;;;;;4.80;1.20;;;13.80;90.60;;;;;;5015781;28;20034;-80
2024/04/05 01:37:48;;;;;;;2.78;1.00;;;13.90;90.60;;;;;;5015625;28;20029;-81
2024/04/05 01:40:14;;;;;;;2.53;1.08;;;13.90;90.60;;;;;;4997905;28;20029;-81
2024/04/05 01:42:40;;;;;;;2.92;1.05;;;13.80;90.60;;;;;;4998277;28;20093;-81
2024/04/05 01:45:06;;;;;;;3.63;1.17;;;13.90;90.60;;;;;;4998271;28;20034;-81
2024/04/05 01:47:32;;;;;;;3.45;1.10;;;13.90;90.50;;;;;;5015918;28;20487;-82
2024/04/05 01:49:58;;;;;;;3.17;1.00;;;13.70;90.40;;;;;;5015815;28;20026;-81
2024/04/05 01:52:23;;;;;;;3.53;1.17;;;13.90;90.50;;;;;;5015610;28;20046;-82
2024/04/05 01:54:49;;;;;;;3.53;0.95;;;13.90;90.40;;;;;;5015614;28;20070;-80
2024/04/05 01:57:15;;;;;;;3.35;1.17;;;13.80;90.30;;;;;;4998056;28;20026;-80
2024/04/05 01:59:52;;;;;;;3.75;1.13;;;13.90;90.40;;;;;;4997796;28;20486;-80
2024/04/05 02:02:18;;;;;;;5.22;1.60;;;13.90;90.30;;;;;;4997973;28;20074;-81
2024/04/05 02:04:44;;;;;;;3.15;1.10;;;13.80;90.30;;;;;;4998119;28;20062;-80
2024/04/05 02:07:10;;;;;;;5.55;1.48;;;13.80;90.30;;;;;;4997617;28;20025;-81
2024/04/05 02:09:36;;;;;;;4.18;1.00;;;13.90;90.40;;;;;;5015264;28;20088;-80
2024/04/05 02:12:02;;;;;;;4.25;1.00;;;13.80;90.40;;;;;;4997642;28;20113;-81
2024/04/05 02:14:27;;;;;;;3.22;1.13;;;13.90;90.40;;;;;;4997570;28;20484;-80
2024/04/05 02:16:58;;;;;;;4.68;1.48;;;13.90;90.40;;;;;;5015381;28;20029;-81
2024/04/05 02:19:24;;;;;;;4.88;1.30;;;13.80;90.40;;;;;;4997716;28;20026;-81
2024/04/05 02:21:50;;;;;;;3.25;1.10;;;13.90;90.40;;;;;;4997737;28;20402;-81
2024/04/05 02:24:16;;;;;;;3.25;0.93;;;13.70;90.40;;;;;;4997725;28;20038;-81
2024/04/05 02:26:41;;;;;;;3.17;1.00;;;13.90;90.50;;;;;;4998001;28;20057;-80
2024/04/05 02:29:07;;;;;;;6.22;1.20;;;13.90;90.50;;;;;;5015308;28;20112;-81
2024/04/05 02:31:33;;;;;;;1.83;0.95;;;13.90;90.50;;;;;;4997507;28;20394;-81
2024/04/05 02:33:58;;;;;;;4.78;1.17;;;13.80;90.50;;;;;;4997440;28;20033;-80
2024/04/05 02:36:24;;;;;;;3.50;1.05;;;13.70;90.50;;;;;;4996673;28;20450;-80
2024/04/05 02:38:50;;;;;;;2.80;0.90;;;13.70;90.50;;;;;;4997606;28;20026;-81
2024/04/05 02:41:15;;;;;;;3.58;0.90;;;13.80;90.50;;;;;;5015460;28;20105;-80
2024/04/05 02:43:41;;;;;;;2.83;0.93;;;13.90;90.50;;;;;;4997300;28;20116;-81
2024/04/05 02:46:07;;;;;;;3.25;0.98;;;13.90;90.50;;;;;;4997463;28;20057;-81
2024/04/05 02:48:32;;;;;;;3.50;1.23;;;13.80;90.50;;;;;;4997405;28;20030;-81
2024/04/05 02:50:58;;;;;;;3.17;0.98;;;13.80;90.50;;;;;;4997292;28;20117;-80
2024/04/05 02:53:24;;;;;;;3.33;1.08;;;13.90;90.60;;;;;;4997247;28;20474;-81
2024/04/05 02:55:50;;;;;;;3.28;1.17;;;13.80;90.80;;;;;;5015117;28;20034;-80
2024/04/05 02:58:16;;;;;;;3.65;1.10;;;13.90;90.60;;;;;;4997212;28;20026;-80
2024/04/05 03:00:45;;;;;;;3.40;1.00;;;13.80;90.50;;;;;;5014895;28;20022;-80
2024/04/05 03:03:10;;;;;;;3.00;1.00;;;13.90;90.50;;;;;;4996815;28;20037;-80
2024/04/05 03:05:36;;;;;;;3.10;1.35;;;13.80;90.50;;;;;;5014853;28;20091;-80
2024/04/05 03:08:01;;;;;;;4.78;1.45;;;13.90;90.50;;;;;;5014706;28;20017;-80
2024/04/05 03:10:27;;;;;;;4.68;1.30;;;13.90;90.50;;;;;;4996768;28;20029;-80
2024/04/05 03:12:53;;;;;;;4.78;1.50;;;13.80;90.40;;;;;;4997054;28;20114;-80
2024/04/05 03:15:19;;;;;;;2.80;1.00;;;13.90;90.50;;;;;;4996790;28;20021;-81
2024/04/05 03:17:45;;;;;;;2.83;1.10;;;13.90;90.60;;;;;;5014503;28;20105;-80
2024/04/05 03:20:14;;;;;;;4.45;1.10;;;13.90;90.50;;;;;;5014592;28;20037;-80
2024/04/05 03:22:40;;;;;;;3.38;1.13;;;13.90;90.40;;;;;;5014352;28;20074;-80
2024/04/05 03:25:06;;;;;;;4.35;1.20;;;13.90;90.40;;;;;;4996441;28;20029;-80
2024/04/05 03:27:32;;;;;;;5.70;1.13;;;13.80;90.40;;;;;;4996672;28;20041;-80
2024/04/05 03:29:58;;;;;;;5.40;1.33;;;13.90;90.50;;;;;;5014236;28;20830;-80
2024/04/05 03:32:24;;;;;;;3.60;1.23;;;13.70;90.20;;;;;;5013999;28;20022;-80
2024/04/05 03:34:49;;;;;;;2.63;0.82;;;13.80;90.30;;;;;;5013850;28;20572;-80
2024/04/05 03:37:15;;;;;;;2.28;0.90;;;13.90;90.30;;;;;;5013923;28;20545;-81
2024/04/05 03:39:41;;;;;;;3.75;1.10;;;13.90;90.30;;;;;;5013982;28;20036;-81
2024/04/05 03:42:06;;;;;;;4.38;1.17;;;13.80;90.30;;;;;;5013799;28;20057;-81
2024/04/05 03:44:32;;;;;;;3.53;1.08;;;13.90;90.30;;;;;;4996605;28;20036;-81
2024/04/05 03:46:57;;;;;;;4.53;1.23;;;13.80;90.30;;;;;;5013764;28;20080;-81
2024/04/05 03:49:25;;;;;;;4.75;1.33;;;13.80;90.30;;;;;;4996321;28;20018;-80
2024/04/05 03:51:50;;;;;;;5.75;1.33;;;13.80;90.30;;;;;;4996112;28;20076;-81
2024/04/05 03:54:16;;;;;;;3.55;1.00;;;13.90;90.40;;;;;;5014094;28;20026;-81
2024/04/05 03:56:41;;;;;;;4.18;1.35;;;13.80;90.40;;;;;;5014012;28;20034;-80
2024/04/05 03:59:07;;;;;;;3.95;1.15;;;13.70;90.10;;;;;;4996012;28;20398;-81
2024/04/05 04:01:32;;;;;;;3.65;1.30;;;13.80;90.20;;;;;;5013290;28;20121;-81
2024/04/05 04:03:58;;;;;;;4.63;1.23;;;13.90;90.30;;;;;;5013354;28;20093;-81
2024/04/05 04:06:24;;;;;;;4.03;0.98;;;13.80;90.20;;;;;;4995915;28;20026;-80
2024/04/05 04:08:50;;;;;;;3.88;1.10;;;13.70;90.30;;;;;;4995838;28;20022;-81
2024/04/05 04:11:15;;;;;;;5.05;1.02;;;13.90;90.30;;;;;;5013269;28;20788;-81
2024/04/05 04:13:41;;;;;;;3.95;1.00;;;14.00;90.30;;;;;;5013337;28;20030;-81
2024/04/05 04:16:07;;;;;;;3.20;1.20;;;13.70;90.30;;;;;;4980012;28;20077;-81
2024/04/05 04:18:33;;;;;;;4.32;1.10;;;13.80;90.30;;;;;;4995739;28;20064;-81
2024/04/05 04:20:59;;;;;;;3.03;0.90;;;13.90;90.30;;;;;;4995424;28;20113;-81
2024/04/05 04:23:25;;;;;;;3.70;1.08;;;13.90;90.30;;;;;;5013056;28;20021;-80
2024/04/05 04:25:51;;;;;;;3.45;1.00;;;13.90;90.40;;;;;;4995631;28;20041;-81
2024/04/05 04:28:17;;;;;;;4.28;1.15;;;13.90;90.40;;;;;;5013263;28;20022;-81
2024/04/05 04:30:45;;;;;;;4.47;1.00;;;13.90;90.30;;;;;;5013024;28;20028;-81
2024/04/05 04:33:14;;;;;;;3.80;0.90;;;13.90;90.40;;;;;;5013264;28;20100;-81
2024/04/05 04:35:43;;;;;;;4.53;1.10;;;13.80;90.40;;;;;;4995430;28;20049;-81
2024/04/05 04:38:09;;;;;;;4.32;1.10;;;13.90;90.40;;;;;;4995543;28;20018;-81
2024/04/05 04:40:35;;;;;;;3.10;0.98;;;13.80;90.30;;;;;;5012974;28;20026;-81
2024/04/05 04:43:01;;;;;;;3.50;1.00;;;13.80;90.40;;;;;;4995315;28;20026;-81
2024/04/05 04:45:27;;;;;;;5.20;1.30;;;13.80;90.40;;;;;;5012842;28;20034;-80
2024/04/05 04:47:52;;;;;;;5.07;1.15;;;13.70;90.30;;;;;;5012963;28;20018;-80
2024/04/05 04:50:18;;;;;;;5.05;1.50;;;13.90;90.40;;;;;;4995353;28;20029;-80
2024/04/05 04:52:43;;;;;;;2.78;1.00;;;13.80;90.40;;;;;;5012815;28;20034;-81
2024/04/05 04:55:10;;;;;;;3.78;1.10;;;13.90;90.40;;;;;;4995364;28;20068;-80
2024/04/05 04:57:37;;;;;;;3.33;1.23;;;13.90;90.50;;;;;;4998677;28;20083;-79
2024/04/05 05:00:04;;;;;;;3.05;1.02;;;13.80;90.30;;;;;;5012517;28;20112;-81
2024/04/05 05:02:30;;;;;;;4.07;1.20;;;13.80;90.40;;;;;;5030923;28;20033;-80
2024/04/05 05:04:58;;;;;;;2.95;0.90;;;13.70;90.40;;;;;;5012696;28;20032;-81
2024/04/05 05:07:24;;;;;;;4.72;1.05;;;13.80;90.50;;;;;;5019492;28;20026;-80
2024/04/05 05:09:49;;;;;;;3.25;1.20;;;13.80;90.50;;;;;;4992512;28;20036;-80
2024/04/05 05:12:15;;;;;;;4.07;1.33;;;13.90;90.50;;;;;;5010432;28;20502;-81
2024/04/05 05:14:40;;;;;;;4.18;1.35;;;13.90;90.60;;;;;;5010374;28;20032;-80
2024/04/05 05:17:06;;;;;;;3.25;0.80;;;13.80;90.60;;;;;;4993054;28;20038;-81
2024/04/05 05:19:32;;;;;;;2.67;0.90;;;13.90;90.60;;;;;;4993219;28;20034;-81
2024/04/05 05:21:58;;;;;;;4.18;1.02;;;13.90;90.60;;;;;;4993461;28;20033;-81
2024/04/05 05:24:23;;;;;;;3.33;1.05;;;13.80;90.60;;;;;;5009887;28;20041;-79
2024/04/05 05:26:49;;;;;;;2.60;0.98;;;13.80;90.40;;;;;;5010538;28;20022;-81
2024/04/05 05:29:15;;;;;;;2.80;0.90;;;13.70;90.50;;;;;;4996375;28;20038;-80
2024/04/05 05:31:40;;;;;;;4.63;1.25;;;13.90;90.60;;;;;;4993653;28;20025;-81
2024/04/05 05:34:06;;;;;;;5.35;1.40;;;13.90;90.50;;;;;;4993389;28;20049;-81
2024/04/05 05:36:34;;;;;;;3.28;1.15;;;13.80;90.50;;;;;;5009830;28;20026;-83
2024/04/05 05:39:01;;;;;;;3.30;1.10;;;13.80;90.50;;;;;;4993424;28;20037;-80
2024/04/05 05:41:27;;;;;;;2.55;0.98;;;13.70;90.50;;;;;;4992344;28;20030;-84
2024/04/05 05:43:53;;;;;;;4.82;1.25;;;13.80;90.60;;;;;;5012137;28;20038;-84
2024/04/05 05:46:19;;;;;;;4.97;1.42;;;13.90;90.60;;;;;;4994416;28;20088;-84
2024/04/05 05:48:44;;;;;;;4.97;1.27;;;13.70;90.60;;;;;;5011201;28;20022;-82
2024/04/05 05:51:10;;;;;;;3.75;1.50;;;13.90;90.60;;;;;;4993221;28;20061;-82
2024/04/05 05:53:35;;;;;;;4.68;1.20;;;13.90;90.60;;;;;;4993119;28;20030;-79
2024/04/05 05:56:02;;;;;;;2.90;0.90;;;13.80;90.60;;;;;;4992131;28;20057;-78
2024/04/05 05:58:28;;;;;;;4.05;1.15;;;13.80;90.60;;;;;;4992927;28;20053;-79
2024/04/05 06:00:54;;;;;;;3.45;1.00;;;13.90;90.60;;;;;;4992385;28;20034;-80
2024/04/05 06:03:20;;;;;;;4.45;1.33;;;13.80;90.60;;;;;;4991991;28;20155;-81
2024/04/05 06:05:52;;;;;;;3.30;0.93;;;13.80;90.60;;;;;;4991520;28;20033;-81
2024/04/05 06:08:17;;;;;;;2.42;1.00;;;13.80;90.70;;;;;;4992488;28;20045;-79
2024/04/05 06:10:53;;;;;;;3.33;1.20;;;13.80;90.60;;;;;;5012180;28;20052;-80
2024/04/05 06:13:18;;;;;;;4.93;1.30;;;13.90;90.70;;;;;;5014684;28;20022;-79
2024/04/05 06:15:44;;;;;;;1.92;0.82;;;13.90;90.70;;;;;;5013314;28;20021;-79
2024/04/05 06:18:10;;;;;;;4.47;1.30;;;13.80;90.60;;;;;;4996137;28;20021;-80
2024/04/05 06:20:35;;;;;;;3.35;1.00;;;13.90;90.70;;;;;;4995385;28;20033;-79
2024/04/05 06:23:01;;;;;;;4.18;0.93;;;13.80;90.60;;;;;;5012482;28;20018;-80
2024/04/05 06:25:27;;;;;;;4.03;1.10;;;13.80;90.70;;;;;;4994787;28;20030;-80
2024/04/05 06:27:55;;;;;;;4.90;1.30;;;13.80;90.70;;;;;;4994726;28;20098;-80
2024/04/05 06:30:20;;;;;;;3.97;1.05;;;13.80;90.70;;;;;;4994062;28;20026;-80
2024/04/05 06:32:46;;;;;;;4.60;1.15;;;13.80;90.70;;;;;;5012062;28;20383;-80
2024/04/05 06:35:12;;;;;;;2.45;0.90;;;13.80;90.70;;;;;;5011784;28;20022;-80
2024/04/05 06:37:38;;;;;;;7.15;1.50;;;13.90;90.70;;;;;;4994225;28;20034;-80
2024/04/05 06:40:04;;;;;;;2.88;0.95;;;13.80;90.70;;;;;;4992946;28;20029;-79
2024/04/05 06:42:30;;;;;;;3.78;1.10;;;13.80;90.70;;;;;;4994526;28;20026;-80
2024/04/05 06:44:55;;;;;;;4.88;1.23;;;13.90;90.70;;;;;;4995073;28;20026;-81
2024/04/05 06:47:21;;;;;;;6.28;1.60;;;13.90;90.80;;;;;;5012017;28;20117;-80
2024/04/05 06:49:47;;;;;;;3.50;0.98;;;13.90;90.80;;;;;;4994183;28;20029;-80
2024/04/05 06:52:13;;;;;;;4.28;1.45;;;13.90;90.80;;;;;;4993949;28;20785;-79
2024/04/05 06:54:43;;;;;;;7.05;1.55;;;13.80;90.70;;;;;;5011649;28;20061;-80
2024/04/05 06:57:09;;;;;;;5.00;1.27;;;13.80;90.80;;;;;;4993810;28;20053;-79
2024/04/05 06:59:35;;;;;;;5.05;1.30;;;13.90;90.90;;;;;;5011223;28;20037;-80
2024/04/05 07:02:00;;;;;;;16.67;2.03;;;13.90;90.90;;;;;;4994477;28;20034;-80
2024/04/05 07:04:26;;;;;;;3.38;1.00;;;13.80;90.80;;;;;;4994145;28;20103;-79
2024/04/05 07:06:53;;;;;;;5.45;1.40;;;13.90;90.80;;;;;;4994302;28;20120;-79
2024/04/05 07:09:22;;;;;;;3.72;1.10;;;13.90;90.70;;;;;;4994360;28;20105;-78
2024/04/05 07:11:49;;;;;;;4.30;1.00;;;13.90;90.70;;;;;;4994184;28;20061;-79
2024/04/05 07:14:18;;;;;;;3.90;1.20;;;13.90;90.70;;;;;;4993788;28;20041;-81
2024/04/05 07:16:47;;;;;;;3.65;1.25;;;13.90;90.70;;;;;;5011998;28;20034;-81
2024/04/05 07:19:13;;;;;;;2.88;1.20;;;14.00;90.70;;;;;;4994604;28;20022;-80
2024/04/05 07:21:39;;;;;;;3.17;1.02;;;13.90;90.70;;;;;;5010891;28;20026;-81
2024/04/05 07:24:06;;;;;;;4.38;1.27;;;14.00;90.70;;;;;;5023640;28;20022;-81
2024/04/05 07:26:33;;;;;;;3.42;1.10;;;13.90;90.70;;;;;;5011850;28;20026;-80
2024/04/05 07:28:59;;;;;;;4.32;1.17;;;13.90;90.70;;;;;;5009917;28;20029;-80
2024/04/05 07:31:25;;;;;;;4.60;1.40;;;13.90;90.80;;;;;;5010031;28;20038;-80
2024/04/05 07:33:51;;;;;;;3.67;1.00;;;13.90;90.70;;;;;;5012032;28;20033;-80
2024/04/05 07:36:17;;;;;;;4.03;1.08;;;14.00;90.80;;;;;;5009751;28;20034;-81
2024/04/05 07:38:43;;;;;;;3.22;0.93;;;14.00;90.70;;;;;;5012182;28;20033;-81
2024/04/05 07:41:10;;;;;;;4.25;1.10;;;13.90;90.60;;;;;;5011110;28;20387;-81
2024/04/05 07:43:35;;;;;;;4.03;1.20;;;14.00;90.70;;;;;;5010266;28;20091;-81
2024/04/05 07:46:01;;;;;;;4.38;1.15;;;14.10;90.60;;;;;;5010659;28;20112;-82
2024/04/05 07:48:28;;;;;;;3.90;1.20;;;14.10;90.60;;;;;;5011164;28;20022;-82
2024/04/05 07:50:57;;;;;;;3.58;1.00;;;14.00;90.50;;;;;;5009969;28;20026;-81
2024/04/05 07:53:24;;;;;;;3.25;0.95;;;14.00;90.50;;;;;;5011365;28;20100;-81
2024/04/05 07:55:49;;;;;;;2.97;0.90;;;14.10;90.60;;;;;;5009778;28;20026;-81
2024/04/05 07:58:15;;;;;;;3.08;1.00;;;14.10;90.60;;;;;;5009750;28;20045;-81
2024/04/05 08:00:41;;;;;;;3.08;1.00;;;14.10;90.50;;;;;;5011852;28;20022;-82
2024/04/05 08:03:06;;;;;;;3.72;1.10;;;14.10;90.40;;;;;;5009716;28;20054;-81
2024/04/05 08:05:35;;;;;;;1.92;0.85;;;14.00;90.40;;;;;;5009482;28;20030;-81
2024/04/05 08:08:00;;;;;;;2.55;0.98;;;14.10;90.40;;;;;;5010777;28;20060;-81
2024/04/05 08:10:26;;;;;;;2.20;0.90;;;14.10;90.40;;;;;;5009808;28;20018;-82
2024/04/05 08:12:52;;;;;;;2.85;0.93;;;14.20;90.40;;;;;;5011070;28;20065;-80
2024/04/05 08:15:18;;;;;;;3.10;1.10;;;14.20;90.40;;;;;;5010377;28;20062;-82
2024/04/05 08:17:43;;;;;;;4.22;1.10;;;14.20;90.40;;;;;;5009784;28;20482;-82
2024/04/05 08:20:10;;;;;;;3.75;1.00;;;14.20;90.40;;;;;;5010410;28;20029;-82
2024/04/05 08:22:36;;;;;;;3.58;1.00;;;14.40;90.30;;;;;;5011333;28;20456;-81
2024/04/05 08:25:02;;;;;;;2.80;0.90;;;14.30;90.30;;;;;;5010007;28;20061;-82
2024/04/05 08:27:30;;;;;;;2.97;0.95;;;14.30;90.20;;;;;;5009846;28;20056;-82
2024/04/05 08:29:56;;;;;;;3.40;1.20;;;14.30;90.20;;;;;;5011133;28;20041;-83
2024/04/05 08:32:22;;;;;;;2.03;0.90;;;14.30;90.10;;;;;;5011396;28;20678;-84
2024/04/05 08:34:48;;;;;;;3.25;0.98;;;14.40;90.20;;;;;;4991405;28;20036;-81
2024/04/05 08:37:13;;;;;;;2.92;1.08;;;14.30;90.10;;;;;;5003282;28;20489;-82
2024/04/05 08:39:39;;;;;;;4.38;1.10;;;14.40;90.20;;;;;;5009037;28;20026;-82
2024/04/05 08:42:12;;;;;;;3.25;0.90;;;14.40;90.20;;;;;;5009627;28;20033;-81
2024/04/05 08:44:47;;;;;;;2.95;1.10;;;14.30;90.10;;;;;;5008829;28;20034;-81
2024/04/05 08:47:12;;;;;;;3.03;1.10;;;14.30;90.10;;;;;;5010940;28;20883;-80
2024/04/05 08:49:38;;;;;;;3.58;1.23;;;14.30;90.20;;;;;;5009065;28;20038;-80
2024/04/05 08:52:04;;;;;;;2.75;1.00;;;14.30;90.20;;;;;;5009150;28;20034;-82
2024/04/05 08:54:30;;;;;;;3.22;1.00;;;14.30;90.20;;;;;;5009617;28;20029;-79
2024/04/05 08:57:00;;;;;;;2.88;1.02;;;14.40;90.30;;;;;;5009341;28;20026;-82
2024/04/05 08:59:29;;;;;;;3.75;1.00;;;14.30;90.30;;;;;;5011183;28;20053;-81
2024/04/05 09:01:58;;;;;;;2.83;1.00;;;14.30;90.30;;;;;;5010316;28;20041;-81
2024/04/05 09:04:28;;;;;;;2.53;0.90;;;14.40;90.30;;;;;;5008777;28;20030;-79
2024/04/05 09:06:53;;;;;;;3.22;0.98;;;14.30;90.30;;;;;;5009664;28;20499;-82
2024/04/05 09:09:29;;;;;;;3.13;0.90;;;14.40;90.30;;;;;;5010417;28;20060;-82
2024/04/05 09:12:10;;;;;;;2.88;1.10;;;14.30;90.30;;;;;;5009611;28;20026;-82
2024/04/05 09:14:37;;;;;;;2.90;0.95;;;14.30;90.30;;;;;;5010620;28;20033;-82
2024/04/05 09:17:17;;;;;;;3.28;1.00;;;14.30;90.30;;;;;;5009938;28;20033;-82
2024/04/05 09:19:43;;;;;;;3.35;1.00;;;14.40;90.40;;;;;;5010085;28;20030;-82
2024/04/05 09:22:19;;;;;;;2.78;1.00;;;14.20;90.30;;;;;;5010188;28;20041;-82
2024/04/05 09:24:45;;;;;;;3.65;0.95;;;14.30;90.40;;;;;;5009234;28;20042;-81
2024/04/05 09:27:11;;;;;;;2.53;0.85;;;14.20;90.40;;;;;;5010191;28;20096;-80
2024/04/05 09:29:37;;;;;;;3.13;1.00;;;14.30;90.50;;;;;;5010181;28;20036;-80
2024/04/05 09:32:03;;;;;;;2.78;0.90;;;14.10;90.40;;;;;;5008726;28;20688;-80
2024/04/05 09:34:29;;;;;;;2.95;0.98;;;14.10;90.40;;;;;;5008693;28;20076;-80
2024/04/05 09:36:58;;;;;;;3.80;1.20;;;14.30;90.50;;;;;;5008591;28;20145;-80
2024/04/05 09:39:24;;;;;;;2.03;0.90;;;14.30;90.50;;;;;;5010532;28;20116;-82
2024/04/05 09:41:55;;;;;;;1.88;0.80;;;14.10;90.50;;;;;;5010377;28;20050;-82
2024/04/05 09:44:20;;;;;;;3.25;1.00;;;14.10;90.40;;;;;;5010352;28;20530;-82
2024/04/05 09:46:48;;;;;;;3.13;1.00;;;14.30;90.50;;;;;;5014388;28;20121;-82
2024/04/05 09:49:14;;;;;;;3.58;1.10;;;14.30;90.50;;;;;;5012707;28;20033;-82
2024/04/05 09:51:48;;;;;;;2.17;0.88;;;14.30;90.50;;;;;;5011535;28;20409;-82
2024/04/05 09:54:16;;;;;;;3.38;1.10;;;14.20;90.50;;;;;;5012610;28;20029;-82
2024/04/05 09:56:44;;;;;;;3.28;1.00;;;14.30;90.50;;;;;;5011766;28;20177;-81
2024/04/05 09:59:14;;;;;;;3.88;1.00;;;14.20;90.50;;;;;;5012474;28;20121;-82
2024/04/05 10:01:41;;;;;;;3.60;1.10;;;14.30;90.50;;;;;;5012326;28;20036;-82
2024/04/05 10:04:08;;;;;;;2.15;0.93;;;14.30;90.60;;;;;;5013836;28;20022;-82
2024/04/05 10:06:42;;;;;;;3.25;1.05;;;14.20;90.50;;;;;;5012133;28;20506;-82
2024/04/05 10:09:18;;;;;;;3.33;0.90;;;14.30;90.60;;;;;;5013652;28;20544;-83
2024/04/05 10:11:45;;;;;;;3.15;0.90;;;13.90;90.50;;;;;;5012184;28;20049;-82
2024/04/05 10:14:28;;;;;;;3.90;0.98;;;14.30;90.50;;;;;;5012254;28;20088;-81
2024/04/05 10:17:14;;;;;;;3.22;1.10;;;14.30;90.60;;;;;;5011760;28;20034;-81
2024/04/05 10:19:40;;;;;;;3.10;0.90;;;14.30;90.60;;;;;;5011817;28;20129;-82
2024/04/05 10:22:08;;;;;;;1.77;0.80;;;14.30;90.50;;;;;;5011822;28;20033;-81
2024/04/05 10:24:34;;;;;;;3.40;1.00;;;14.30;90.60;;;;;;5011374;28;20033;-82
2024/04/05 10:27:01;;;;;;;2.78;1.00;;;14.30;90.60;;;;;;5011552;28;20030;-82
2024/04/05 10:29:27;;;;;;;3.22;1.05;;;14.30;90.60;;;;;;5011812;28;20056;-82
2024/04/05 10:32:03;;;;;;;3.50;1.30;;;14.10;90.50;;;;;;5012698;28;20554;-82
2024/04/05 10:34:31;;;;;;;3.38;0.90;;;14.30;90.60;;;;;;5012983;28;20030;-82
2024/04/05 10:36:57;;;;;;;3.45;1.10;;;14.30;90.60;;;;;;5014737;28;20030;-82
2024/04/05 10:39:23;;;;;;;3.78;1.05;;;14.40;90.60;;;;;;5011910;28;20057;-81
2024/04/05 10:41:49;;;;;;;3.20;1.00;;;14.20;90.50;;;;;;5011987;28;20060;-82
2024/04/05 10:44:16;;;;;;;3.13;1.00;;;14.30;90.50;;;;;;5012811;28;20026;-81
2024/04/05 10:46:45;;;;;;;3.50;1.02;;;14.40;90.50;;;;;;5012827;28;20037;-82
2024/04/05 10:49:11;;;;;;;2.15;0.80;;;14.40;90.50;;;;;;5012455;28;20077;-82
2024/04/05 10:51:37;;;;;;;1.75;0.80;;;14.40;90.50;;;;;;5011762;28;20120;-81
2024/04/05 10:54:16;;;;;;;2.40;0.93;;;14.40;90.50;;;;;;5012166;28;20033;-82
2024/04/05 10:56:43;;;;;;;3.45;1.00;;;14.30;90.50;;;;;;5010268;28;20132;-82
2024/04/05 10:59:13;;;;;;;2.20;0.93;;;14.30;90.50;;;;;;5012581;28;20095;-82
2024/04/05 11:01:39;;;;;;;1.92;0.80;;;14.30;90.50;;;;;;5010889;28;20045;-82
2024/04/05 11:04:10;;;;;;;4.68;1.30;;;14.40;90.60;;;;;;5013012;28;20037;-82
2024/04/05 11:06:36;;;;;;;2.85;1.25;;;14.30;90.50;;;;;;5012614;28;20048;-82
2024/04/05 11:09:02;;;;;;;2.55;1.00;;;14.40;90.60;;;;;;5010426;28;20030;-81
2024/04/05 11:11:27;;;;;;;2.20;1.00;;;14.20;90.50;;;;;;5010348;28;20033;-79
2024/04/05 11:14:08;;;;;;;2.65;0.90;;;14.30;90.60;;;;;;5009271;28;20042;-82
2024/04/05 11:16:35;;;;;;;1.98;0.90;;;14.30;90.60;;;;;;5011956;28;20022;-81
2024/04/05 11:19:01;;;;;;;2.63;1.00;;;14.30;90.60;;;;;;4995020;28;20049;-80
2024/04/05 11:21:26;;;;;;;1.95;0.90;;;14.30;90.60;;;;;;4994161;28;20057;-81
2024/04/05 11:23:55;;;;;;;2.92;1.00;;;14.30;90.70;;;;;;5011470;28;20041;-81
2024/04/05 11:26:28;;;;;;;2.72;0.90;;;14.30;90.70;;;;;;4994538;28;20088;-81
2024/04/05 11:28:53;;;;;;;1.90;0.90;;;14.30;90.70;;;;;;4994179;28;20133;-81
2024/04/05 11:31:19;;;;;;;2.08;0.70;;;14.30;90.60;;;;;;4994282;28;20086;-82
2024/04/05 11:33:44;;;;;;;2.13;0.73;;;14.30;90.70;;;;;;5011763;28;20036;-79
2024/04/05 11:36:10;;;;;;;2.60;1.00;;;14.30;90.70;;;;;;4993759;28;20026;-81
2024/04/05 11:38:36;;;;;;;2.83;1.00;;;14.20;90.60;;;;;;4994385;28;20133;-81
2024/04/05 11:41:03;;;;;;;3.08;1.00;;;14.30;90.70;;;;;;4994756;28;20438;-82
2024/04/05 11:43:28;;;;;;;1.85;0.88;;;14.30;90.70;;;;;;5011010;28;20106;-81
2024/04/05 11:45:55;;;;;;;2.00;0.90;;;14.20;90.70;;;;;;5011226;28;20097;-81
2024/04/05 11:48:22;;;;;;;2.65;1.00;;;14.30;90.70;;;;;;5011054;28;20733;-81
2024/04/05 11:50:48;;;;;;;2.00;1.05;;;14.30;90.70;;;;;;5011044;28;20026;-81
2024/04/05 11:53:13;;;;;;;2.13;0.80;;;14.40;90.70;;;;;;5012047;28;20431;-81
2024/04/05 11:55:40;;;;;;;1.90;0.90;;;14.30;90.90;;;;;;4993879;28;20136;-81
2024/04/05 11:58:05;;;;;;;2.72;0.90;;;14.20;90.70;;;;;;4991825;28;20100;-85
2024/04/05 12:00:31;;;;;;;1.95;0.85;;;14.40;90.70;;;;;;4990859;28;20018;-81
2024/04/05 12:02:57;;;;;;;2.25;0.90;;;14.30;90.70;;;;;;4989699;28;20483;-82
2024/04/05 12:05:23;;;;;;;2.97;0.90;;;14.20;90.60;;;;;;4989964;28;20034;-83
2024/04/05 12:07:49;;;;;;;3.22;0.98;;;14.30;90.70;;;;;;5003518;28;20026;-82
2024/04/05 12:10:15;;;;;;;2.13;0.80;;;14.10;90.60;;;;;;5008685;28;20039;-80
2024/04/05 12:12:41;;;;;;;2.92;0.85;;;14.30;90.60;;;;;;4993050;28;20076;-81
2024/04/05 12:15:07;;;;;;;2.25;0.90;;;14.40;90.70;;;;;;5010166;28;20034;-82
2024/04/05 12:17:35;;;;;;;2.65;0.95;;;14.30;90.60;;;;;;4992836;28;20073;-82
2024/04/05 12:20:03;;;;;;;2.20;0.80;;;14.20;90.80;;;;;;4992625;28;20026;-82
2024/04/05 12:22:30;;;;;;;2.45;0.85;;;14.20;90.60;;;;;;4992273;28;20762;-82
2024/04/05 12:24:55;;;;;;;2.10;1.00;;;14.30;90.60;;;;;;4992295;28;20387;-81
2024/04/05 12:27:21;;;;;;;1.52;0.70;;;14.30;90.60;;;;;;4992556;28;20109;-81
2024/04/05 12:29:47;;;;;;;1.75;0.85;;;14.10;90.60;;;;;;4992516;28;20926;-81
2024/04/05 12:32:14;;;;;;;1.63;0.70;;;14.30;90.70;;;;;;4992274;28;20037;-81
2024/04/05 12:34:39;;;;;;;2.33;0.90;;;14.20;90.60;;;;;;4992576;28;20032;-81
2024/04/05 12:37:08;;;;;;;2.22;0.80;;;14.30;90.70;;;;;;5010331;28;20394;-81
2024/04/05 12:39:38;;;;;;;2.25;0.80;;;14.30;90.70;;;;;;5009662;28;20030;-82
2024/04/05 12:42:04;;;;;;;2.35;0.90;;;14.40;90.70;;;;;;5008089;28;20034;-81
2024/04/05 12:44:29;;;;;;;3.22;0.88;;;14.20;90.70;;;;;;4992174;28;20025;-81
2024/04/05 12:46:56;;;;;;;3.95;1.13;;;14.20;90.70;;;;;;5009527;28;20030;-82